createdAt,value
2019-05-21T00:01:48.597Z,101291.41
2019-05-21T00:04:37.926Z,101289.20
2019-05-21T00:07:28.865Z,101288.52
2019-05-21T00:10:18.469Z,101293.53
2019-05-21T00:13:07.450Z,101290.45
2019-05-21T00:15:57.177Z,101285.66
2019-05-21T00:18:46.425Z,101285.26
2019-05-21T00:21:38.355Z,101285.36
2019-05-21T00:24:27.783Z,101289.39
2019-05-21T00:27:16.916Z,101284.17
2019-05-21T00:31:00.927Z,101281.58
2019-05-21T00:34:45.404Z,101280.29
2019-05-21T00:38:29.821Z,101277.70
2019-05-21T00:42:01.414Z,101288.94
2019-05-21T00:44:54.476Z,101276.14
2019-05-21T00:47:45.314Z,101274.80
2019-05-21T00:50:36.129Z,101272.11
2019-05-21T00:53:25.960Z,101274.05
2019-05-21T00:56:17.800Z,101266.56
2019-05-21T00:59:08.234Z,101269.80
2019-05-21T01:01:58.511Z,101272.49
2019-05-21T01:05:00.248Z,101270.75
2019-05-21T01:07:42.466Z,101277.97
2019-05-21T01:10:31.981Z,101278.45
2019-05-21T01:13:25.954Z,101277.27
2019-05-21T01:16:18.784Z,101275.56
2019-05-21T01:19:08.803Z,101269.78
2019-05-21T01:22:00.329Z,101275.56
2019-05-21T01:24:52.229Z,101284.57
2019-05-21T01:27:41.510Z,101285.52
2019-05-21T01:30:32.251Z,101287.35
2019-05-21T01:33:23.261Z,101281.22
2019-05-21T01:36:15.222Z,101287.45
2019-05-21T01:39:05.845Z,101288.39
2019-05-21T01:41:57.156Z,101284.85
2019-05-21T01:44:47.067Z,101287.05
2019-05-21T01:47:37.007Z,101276.88
2019-05-21T01:50:26.232Z,101281.95
2019-05-21T01:53:16.418Z,101281.47
2019-05-21T01:56:06.608Z,101281.10
2019-05-21T01:58:57.917Z,101282.99
2019-05-21T02:01:48.148Z,101287.02
2019-05-21T02:04:38.315Z,101288.95
2019-05-21T02:07:28.295Z,101285.02
2019-05-21T02:10:20.635Z,101281.44
2019-05-21T02:13:10.439Z,101290.94
2019-05-21T02:16:00.996Z,101291.42
2019-05-21T02:18:50.748Z,101289.78
2019-05-21T02:21:41.082Z,101283.64
2019-05-21T02:24:31.315Z,101284.19
2019-05-21T02:27:22.200Z,101285.05
2019-05-21T02:30:15.477Z,101288.71
2019-05-21T02:33:05.215Z,101286.02
2019-05-21T02:35:55.526Z,101280.84
2019-05-21T02:38:45.718Z,101281.78
2019-05-21T02:41:34.489Z,101289.94
2019-05-21T02:44:23.123Z,101280.98
2019-05-21T02:47:12.844Z,101283.77
2019-05-21T02:50:05.344Z,101282.52
2019-05-21T02:52:54.297Z,101291.92
2019-05-21T02:55:44.207Z,101292.86
2019-05-21T02:58:34.465Z,101288.47
2019-05-21T03:01:31.265Z,101293.93
2019-05-21T03:04:21.004Z,101291.80
2019-05-21T03:07:19.289Z,101294.97
2019-05-21T03:10:11.177Z,101296.80
2019-05-21T03:13:01.844Z,101300.43
2019-05-21T03:15:53.424Z,101296.00
2019-05-21T03:18:47.683Z,101299.17
2019-05-21T03:21:40.833Z,101296.67
2019-05-21T03:24:30.355Z,101310.10
2019-05-21T03:27:22.436Z,101308.81
2019-05-21T03:30:14.236Z,101316.02
2019-05-21T03:33:04.593Z,101329.84
2019-05-21T03:35:54.915Z,101333.48
2019-05-21T03:38:45.889Z,101341.72
2019-05-21T03:41:38.501Z,101333.66
2019-05-21T03:44:31.090Z,101338.63
2019-05-21T03:47:20.589Z,101337.28
2019-05-21T03:50:13.741Z,101337.38
2019-05-21T03:53:05.385Z,101336.52
2019-05-21T03:55:55.499Z,101340.16
2019-05-21T03:58:48.588Z,101344.18
2019-05-21T04:01:40.075Z,101342.44
2019-05-21T04:04:31.305Z,101341.98
2019-05-21T04:07:24.419Z,101350.67
2019-05-21T04:10:16.593Z,101353.75
2019-05-21T04:13:08.613Z,101356.45
2019-05-21T04:16:04.060Z,101348.84
2019-05-21T04:18:58.708Z,101344.81
2019-05-21T04:21:48.543Z,101356.04
2019-05-21T04:24:38.803Z,101364.50
2019-05-21T04:27:28.556Z,101365.84
2019-05-21T04:30:18.381Z,101364.09
2019-05-21T04:33:07.359Z,101367.73
2019-05-21T04:35:57.341Z,101370.41
2019-05-21T04:38:47.911Z,101368.16
2019-05-21T04:41:38.953Z,101371.56
2019-05-21T04:44:28.285Z,101368.30
2019-05-21T04:47:18.829Z,101379.44
2019-05-21T04:50:08.815Z,101375.41
2019-05-21T04:53:00.072Z,101376.76
2019-05-21T04:55:51.715Z,101378.10
2019-05-21T04:58:41.628Z,101381.64
2019-05-21T05:01:32.151Z,101379.05
2019-05-21T05:04:22.257Z,101390.73
2019-05-21T05:07:26.949Z,101392.07
2019-05-21T05:10:06.825Z,101399.19
2019-05-21T05:12:56.341Z,101394.75
2019-05-21T05:15:45.919Z,101389.30
2019-05-21T05:18:34.971Z,101390.73
2019-05-21T05:21:25.760Z,101392.96
2019-05-21T05:24:15.500Z,101392.96
2019-05-21T05:27:06.092Z,101396.10
2019-05-21T05:29:56.048Z,101389.02
2019-05-21T05:32:45.672Z,101392.56
2019-05-21T05:35:37.237Z,101390.73
2019-05-21T05:38:27.363Z,101391.70
2019-05-21T05:41:17.026Z,101395.24
2019-05-21T05:44:07.792Z,101396.10
2019-05-21T05:46:57.350Z,101403.30
2019-05-21T05:49:49.611Z,101397.93
2019-05-21T05:52:39.639Z,101401.10
2019-05-21T05:55:31.452Z,101400.21
2019-05-21T05:58:22.247Z,101400.70
2019-05-21T06:01:13.756Z,101389.96
2019-05-21T06:04:05.428Z,101388.12
2019-05-21T06:06:56.668Z,101393.05
2019-05-21T06:09:47.148Z,101394.53
2019-05-21T06:12:39.979Z,101393.67
2019-05-21T06:15:29.251Z,101395.02
2019-05-21T06:18:21.999Z,101398.88
2019-05-21T06:21:12.999Z,101396.67
2019-05-21T06:24:01.674Z,101405.50
2019-05-21T06:26:51.586Z,101404.19
2019-05-21T06:29:41.915Z,101409.70
2019-05-21T06:32:31.936Z,101405.12
2019-05-21T06:35:21.492Z,101408.58
2019-05-21T06:38:17.728Z,101413.02
2019-05-21T06:41:02.398Z,101412.52
2019-05-21T06:43:52.253Z,101410.23
2019-05-21T06:46:43.519Z,101409.75
2019-05-21T06:49:35.018Z,101409.75
2019-05-21T06:52:24.996Z,101412.03
2019-05-21T06:55:14.469Z,101411.09
2019-05-21T06:58:04.489Z,101409.44
2019-05-21T07:00:54.465Z,101416.47
2019-05-21T07:03:43.970Z,101418.66
2019-05-21T07:06:32.910Z,101427.13
2019-05-21T07:09:24.387Z,101435.58
2019-05-21T07:12:14.099Z,101440.09
2019-05-21T07:15:03.410Z,101446.72
2019-05-21T07:17:53.017Z,101452.02
2019-05-21T07:20:42.581Z,101449.70
2019-05-21T07:23:32.431Z,101457.70
2019-05-21T07:26:22.495Z,101461.78
2019-05-21T07:29:12.281Z,101466.12
2019-05-21T07:32:02.936Z,101463.35
2019-05-21T07:34:52.242Z,101473.16
2019-05-21T07:37:43.036Z,101476.24
2019-05-21T07:40:35.823Z,101480.19
2019-05-21T07:43:29.507Z,101475.13
2019-05-21T07:46:19.578Z,101483.55
2019-05-21T07:49:09.569Z,101484.84
2019-05-21T07:51:59.267Z,101485.22
2019-05-21T07:54:49.010Z,101485.53
2019-05-21T07:57:42.082Z,101488.13
2019-05-21T08:00:32.063Z,101485.75
2019-05-21T08:03:21.574Z,101484.01
2019-05-21T08:06:16.780Z,101487.41
2019-05-21T08:09:14.021Z,101486.07
2019-05-21T08:12:18.319Z,101484.64
2019-05-21T08:14:54.943Z,101499.24
2019-05-21T08:17:44.328Z,101488.89
2019-05-21T08:20:33.453Z,101502.56
2019-05-21T08:23:28.486Z,101498.44
2019-05-21T08:26:18.316Z,101509.02
2019-05-21T08:29:08.620Z,101507.09
2019-05-21T08:32:01.733Z,101518.08
2019-05-21T08:34:54.189Z,101517.53
2019-05-21T08:37:43.437Z,101519.16
2019-05-21T08:40:32.692Z,101516.33
2019-05-21T08:43:22.483Z,101515.84
2019-05-21T08:46:13.123Z,101528.34
2019-05-21T08:49:07.689Z,101525.16
2019-05-21T08:51:56.677Z,101532.64
2019-05-21T08:54:56.177Z,101531.70
2019-05-21T08:57:45.035Z,101533.36
2019-05-21T09:00:34.305Z,101526.15
2019-05-21T09:03:24.847Z,101539.05
2019-05-21T09:06:16.489Z,101540.80
2019-05-21T09:09:07.190Z,101536.27
2019-05-21T09:11:57.885Z,101545.59
2019-05-21T09:14:47.676Z,101544.16
2019-05-21T09:17:36.902Z,101542.81
2019-05-21T09:20:30.644Z,101544.08
2019-05-21T09:23:22.269Z,101554.38
2019-05-21T09:26:13.344Z,101556.97
2019-05-21T09:29:02.020Z,101554.73
2019-05-21T09:31:51.518Z,101557.34
2019-05-21T09:34:48.486Z,101558.23
2019-05-21T09:37:34.671Z,101562.72
2019-05-21T09:40:25.292Z,101564.47
2019-05-21T09:43:15.593Z,101560.34
2019-05-21T09:46:07.810Z,101551.02
2019-05-21T09:48:59.604Z,101560.34
2019-05-21T09:51:49.076Z,101566.13
2019-05-21T09:54:39.072Z,101566.52
2019-05-21T09:57:41.466Z,101570.95
2019-05-21T10:00:49.419Z,101573.19
2019-05-21T10:03:46.680Z,101580.68
2019-05-21T10:06:36.212Z,101581.08
2019-05-21T10:09:25.533Z,101584.94
2019-05-21T10:12:15.127Z,101579.16
2019-05-21T10:15:05.202Z,101588.88
2019-05-21T10:17:54.531Z,101584.36
2019-05-21T10:20:43.626Z,101583.81
2019-05-21T10:23:33.096Z,101588.25
2019-05-21T10:26:25.132Z,101587.67
2019-05-21T10:29:35.582Z,101580.95
2019-05-21T10:32:26.290Z,101586.15
2019-05-21T10:35:16.776Z,101590.19
2019-05-21T10:38:07.329Z,101585.42
2019-05-21T10:40:56.401Z,101584.84
2019-05-21T10:43:46.077Z,101594.09
2019-05-21T10:46:36.619Z,101590.84
2019-05-21T10:49:26.751Z,101596.05
2019-05-21T10:52:16.008Z,101600.00
2019-05-21T10:55:05.674Z,101605.20
2019-05-21T10:57:55.170Z,101606.86
2019-05-21T11:00:45.538Z,101611.59
2019-05-21T11:03:51.689Z,101613.22
2019-05-21T11:06:41.165Z,101611.33
2019-05-21T11:09:31.041Z,101615.67
2019-05-21T11:12:20.310Z,101618.19
2019-05-21T11:15:10.203Z,101622.13
2019-05-21T11:18:10.593Z,101625.22
2019-05-21T11:20:51.657Z,101627.33
2019-05-21T11:23:40.755Z,101625.53
2019-05-21T11:26:29.763Z,101626.78
2019-05-21T11:29:19.741Z,101626.78
2019-05-21T11:32:09.342Z,101635.32
2019-05-21T11:34:58.892Z,101642.84
2019-05-21T11:37:48.370Z,101639.27
2019-05-21T11:40:37.913Z,101638.72
2019-05-21T11:43:26.684Z,101634.50
2019-05-21T11:46:15.465Z,101632.57
2019-05-21T11:49:04.601Z,101631.93
2019-05-21T11:51:53.843Z,101637.13
2019-05-21T11:54:42.714Z,101635.60
2019-05-21T11:57:32.231Z,101636.40
2019-05-21T12:00:25.855Z,101641.30
2019-05-21T12:03:14.993Z,101645.55
2019-05-21T12:06:04.246Z,101643.71
2019-05-21T12:08:56.684Z,101644.02
2019-05-21T12:11:44.276Z,101644.51
2019-05-21T12:14:35.254Z,101647.51
2019-05-21T12:17:24.506Z,101646.16
2019-05-21T12:20:14.501Z,101642.39
2019-05-21T12:23:03.330Z,101645.79
2019-05-21T12:25:51.974Z,101642.15
2019-05-21T12:28:41.619Z,101642.81
2019-05-21T12:31:30.693Z,101642.33
2019-05-21T12:34:20.155Z,101647.92
2019-05-21T12:37:09.355Z,101648.72
2019-05-21T12:39:58.331Z,101656.13
2019-05-21T12:42:47.878Z,101654.13
2019-05-21T12:45:37.506Z,101641.86
2019-05-21T12:48:26.875Z,101649.75
2019-05-21T12:51:16.233Z,101650.91
2019-05-21T12:54:07.034Z,101654.80
2019-05-21T12:57:01.489Z,101648.33
2019-05-21T12:59:50.989Z,101650.47
2019-05-21T13:02:42.270Z,101662.80
2019-05-21T13:05:34.470Z,101658.27
2019-05-21T13:08:24.747Z,101664.05
2019-05-21T13:11:15.498Z,101674.25
2019-05-21T13:14:05.309Z,101677.34
2019-05-21T13:16:57.027Z,101688.98
2019-05-21T13:19:46.367Z,101682.73
2019-05-21T13:22:36.233Z,101693.11
2019-05-21T13:25:25.532Z,101694.95
2019-05-21T13:28:14.526Z,101694.16
2019-05-21T13:31:03.729Z,101704.48
2019-05-21T13:33:54.987Z,101703.59
2019-05-21T13:36:47.098Z,101698.69
2019-05-21T13:39:49.304Z,101707.73
2019-05-21T13:42:28.466Z,101702.34
2019-05-21T13:45:20.856Z,101706.48
2019-05-21T13:48:10.457Z,101704.77
2019-05-21T13:50:59.125Z,101709.75
2019-05-21T13:53:48.809Z,101703.88
2019-05-21T13:56:37.953Z,101717.26
2019-05-21T13:59:27.104Z,101720.44
2019-05-21T14:02:17.685Z,101720.94
2019-05-21T14:05:07.304Z,101728.04
2019-05-21T14:07:56.902Z,101733.92
2019-05-21T14:10:46.042Z,101734.47
2019-05-21T14:13:35.503Z,101733.12
2019-05-21T14:16:25.332Z,101729.63
2019-05-21T14:19:14.928Z,101727.80
2019-05-21T14:22:04.646Z,101727.58
2019-05-21T14:24:54.027Z,101729.25
2019-05-21T14:27:44.732Z,101729.17
2019-05-21T14:30:34.079Z,101732.89
2019-05-21T14:33:23.466Z,101739.75
2019-05-21T14:36:12.197Z,101749.48
2019-05-21T14:39:01.508Z,101742.27
2019-05-21T14:41:51.322Z,101750.25
2019-05-21T14:44:40.644Z,101746.70
2019-05-21T14:47:29.925Z,101749.40
2019-05-21T14:50:18.851Z,101752.58
2019-05-21T14:53:08.232Z,101751.23
2019-05-21T14:55:57.586Z,101747.65
2019-05-21T14:58:49.568Z,101747.20
2019-05-21T15:01:39.490Z,101751.23
2019-05-21T15:04:29.320Z,101744.95
2019-05-21T15:07:21.146Z,101747.65
2019-05-21T15:10:10.403Z,101749.48
2019-05-21T15:13:05.990Z,101752.27
2019-05-21T15:15:54.741Z,101751.38
2019-05-21T15:18:44.482Z,101747.83
2019-05-21T15:21:39.063Z,101752.81
2019-05-21T15:24:28.196Z,101751.11
2019-05-21T15:27:17.968Z,101758.78
2019-05-21T15:30:07.139Z,101758.87
2019-05-21T15:32:56.543Z,101755.78
2019-05-21T15:35:46.477Z,101754.70
2019-05-21T15:38:49.200Z,101757.85
2019-05-21T15:41:26.826Z,101761.03
2019-05-21T15:44:15.945Z,101757.08
2019-05-21T15:47:05.782Z,101762.47
2019-05-21T15:49:55.348Z,101751.78
2019-05-21T15:52:44.835Z,101756.31
2019-05-21T15:55:34.314Z,101760.36
2019-05-21T15:58:26.733Z,101763.05
2019-05-21T16:01:13.951Z,101763.50
2019-05-21T16:04:03.130Z,101764.85
2019-05-21T16:06:52.618Z,101756.86
2019-05-21T16:09:42.098Z,101760.05
2019-05-21T16:12:31.958Z,101759.16
2019-05-21T16:15:22.133Z,101766.38
2019-05-21T16:18:12.223Z,101768.30
2019-05-21T16:21:02.477Z,101768.75
2019-05-21T16:23:52.377Z,101764.41
2019-05-21T16:26:41.711Z,101763.63
2019-05-21T16:29:31.295Z,101766.50
2019-05-21T16:32:21.082Z,101769.20
2019-05-21T16:35:10.161Z,101768.30
2019-05-21T16:38:02.450Z,101769.28
2019-05-21T16:40:51.841Z,101767.53
2019-05-21T16:43:41.594Z,101776.47
2019-05-21T16:46:30.998Z,101776.19
2019-05-21T16:49:20.673Z,101775.78
2019-05-21T16:52:10.599Z,101779.83
2019-05-21T16:55:00.050Z,101776.33
2019-05-21T16:57:49.602Z,101778.66
2019-05-21T17:00:39.349Z,101773.89
2019-05-21T17:03:29.666Z,101783.80
2019-05-21T17:06:19.145Z,101773.98
2019-05-21T17:09:08.642Z,101782.23
2019-05-21T17:12:00.314Z,101788.55
2019-05-21T17:14:50.035Z,101783.11
2019-05-21T17:17:39.664Z,101780.52
2019-05-21T17:20:33.747Z,101780.19
2019-05-21T17:23:19.826Z,101774.04
2019-05-21T17:26:09.719Z,101790.36
2019-05-21T17:28:59.651Z,101795.87
2019-05-21T17:31:49.023Z,101795.87
2019-05-21T17:34:38.253Z,101796.45
2019-05-21T17:37:26.968Z,101799.22
2019-05-21T17:40:17.430Z,101801.99
2019-05-21T17:43:07.047Z,101802.53
2019-05-21T17:45:57.149Z,101807.14
2019-05-21T17:48:47.039Z,101813.45
2019-05-21T17:51:36.455Z,101809.05
2019-05-21T17:54:26.248Z,101814.97
2019-05-21T17:57:16.070Z,101812.45
2019-05-21T18:00:06.619Z,101813.80
2019-05-21T18:02:56.550Z,101822.03
2019-05-21T18:05:45.893Z,101822.56
2019-05-21T18:08:35.552Z,101826.23
2019-05-21T18:11:25.419Z,101823.67
2019-05-21T18:14:15.229Z,101821.52
2019-05-21T18:17:05.588Z,101823.02
2019-05-21T18:19:57.286Z,101819.93
2019-05-21T18:22:48.103Z,101830.28
2019-05-21T18:25:37.879Z,101828.16
2019-05-21T18:28:27.402Z,101830.04
2019-05-21T18:31:17.010Z,101835.05
2019-05-21T18:34:07.066Z,101836.06
2019-05-21T18:36:56.510Z,101836.15
2019-05-21T18:39:46.614Z,101843.03
2019-05-21T18:42:36.510Z,101851.22
2019-05-21T18:45:25.593Z,101852.56
2019-05-21T18:48:15.172Z,101842.86
2019-05-21T18:51:04.722Z,101851.88
2019-05-21T18:53:54.648Z,101848.86
2019-05-21T18:56:44.168Z,101851.14
2019-05-21T18:59:33.935Z,101861.19
2019-05-21T19:02:23.858Z,101859.92
2019-05-21T19:05:14.797Z,101866.31
2019-05-21T19:08:04.522Z,101870.91
2019-05-21T19:10:53.995Z,101860.20
2019-05-21T19:13:43.330Z,101863.45
2019-05-21T19:16:32.429Z,101873.43
2019-05-21T19:19:23.000Z,101869.92
2019-05-21T19:22:18.086Z,101866.91
2019-05-21T19:25:09.393Z,101879.08
2019-05-21T19:27:59.487Z,101881.92
2019-05-21T19:30:49.223Z,101883.27
2019-05-21T19:33:39.330Z,101882.94
2019-05-21T19:36:29.252Z,101883.02
2019-05-21T19:39:19.747Z,101888.95
2019-05-21T19:42:09.674Z,101886.79
2019-05-21T19:44:59.657Z,101882.46
2019-05-21T19:47:49.165Z,101887.87
2019-05-21T19:50:39.518Z,101895.30
2019-05-21T19:53:30.321Z,101902.02
2019-05-21T19:56:20.288Z,101900.27
2019-05-21T19:59:09.982Z,101903.52
2019-05-21T20:02:02.756Z,101909.34
2019-05-21T20:04:54.348Z,101912.58
2019-05-21T20:07:43.923Z,101912.25
2019-05-21T20:10:38.211Z,101922.14
2019-05-21T20:13:32.664Z,101919.11
2019-05-21T20:16:20.764Z,101923.59
2019-05-21T20:19:11.624Z,101924.64
2019-05-21T20:22:00.616Z,101923.44
2019-05-21T20:24:51.641Z,101931.95
2019-05-21T20:27:42.416Z,101933.36
2019-05-21T20:30:32.449Z,101936.53
2019-05-21T20:33:25.268Z,101933.92
2019-05-21T20:36:16.925Z,101937.05
2019-05-21T20:39:10.332Z,101937.54
2019-05-21T20:42:00.552Z,101938.47
2019-05-21T20:44:50.568Z,101936.72
2019-05-21T20:47:40.287Z,101936.79
2019-05-21T20:50:32.081Z,101935.94
2019-05-21T20:53:22.186Z,101930.70
2019-05-21T20:56:13.042Z,101939.17
2019-05-21T20:59:02.037Z,101943.24
2019-05-21T21:01:51.468Z,101942.38
2019-05-21T21:04:41.180Z,101942.05
2019-05-21T21:07:30.829Z,101940.39
2019-05-21T21:10:20.588Z,101942.67
2019-05-21T21:13:11.523Z,101948.56
2019-05-21T21:16:05.285Z,101951.32
2019-05-21T21:18:56.822Z,101950.05
2019-05-21T21:21:47.829Z,101946.09
2019-05-21T21:24:38.653Z,101952.88
2019-05-21T21:27:28.237Z,101951.13
2019-05-21T21:30:20.540Z,101953.02
2019-05-21T21:33:10.988Z,101955.29
2019-05-21T21:36:03.402Z,101952.68
2019-05-21T21:38:53.737Z,101942.42
2019-05-21T21:41:44.222Z,101947.38
2019-05-21T21:44:34.581Z,101952.75
2019-05-21T21:47:25.928Z,101958.67
2019-05-21T21:50:17.129Z,101957.77
2019-05-21T21:53:12.294Z,101965.42
2019-05-21T21:56:07.916Z,101965.90
2019-05-21T21:59:07.903Z,101961.50
2019-05-21T22:02:05.233Z,101963.73
2019-05-21T22:04:57.835Z,101961.56
2019-05-21T22:07:49.813Z,101962.98
2019-05-21T22:10:39.176Z,101963.91
2019-05-21T22:13:28.490Z,101960.85
2019-05-21T22:16:17.540Z,101965.32
2019-05-21T22:19:08.385Z,101963.19
2019-05-21T22:21:59.362Z,101964.53
2019-05-21T22:24:50.557Z,101961.92
2019-05-21T22:27:40.879Z,101961.44
2019-05-21T22:30:33.057Z,101959.30
2019-05-21T22:33:22.802Z,101969.14
2019-05-21T22:36:15.208Z,101964.27
2019-05-21T22:39:08.454Z,101970.97
2019-05-21T22:41:58.970Z,101972.37
2019-05-21T22:44:48.895Z,101972.37
2019-05-21T22:47:38.575Z,101968.84
2019-05-21T22:50:28.391Z,101969.77
2019-05-21T22:53:19.231Z,101971.55
2019-05-21T22:56:08.702Z,101970.62
2019-05-21T22:58:58.680Z,101972.03
2019-05-21T23:01:50.109Z,101970.28
2019-05-21T23:04:41.959Z,101964.53
2019-05-21T23:07:32.207Z,101970.83
2019-05-21T23:10:23.281Z,101967.29
2019-05-21T23:13:14.261Z,101967.73
2019-05-21T23:16:04.772Z,101965.53
2019-05-21T23:18:56.385Z,101959.83
2019-05-21T23:21:51.919Z,101968.28
2019-05-21T23:24:42.320Z,101967.88
2019-05-21T23:27:33.489Z,101969.28
2019-05-21T23:30:23.715Z,101965.33
2019-05-21T23:33:15.532Z,101967.59
2019-05-21T23:36:05.794Z,101966.73
2019-05-21T23:38:56.474Z,101962.78
2019-05-21T23:41:47.831Z,101958.34
2019-05-21T23:44:40.959Z,101967.32
2019-05-21T23:47:32.599Z,101966.05
2019-05-21T23:50:42.841Z,101972.34
2019-05-21T23:53:33.718Z,101968.31
2019-05-21T23:56:26.062Z,101973.75
2019-05-21T23:59:18.275Z,101967.53
